Terminal Aerodrome Forecast
Issued by NWS Wakefield, VA

Home | Current Version | Previous Version | Text Only | Print | Product List | Glossary On
Versions: 1 2 3 4 5 6 7 8 9 10 11 12 13 14 15 16
335
FTUS41 KAKQ 241442 AAB
TAFECG
TAF AMD
KECG 241442Z 2415/2512 09012KT 5SM -RA SCT025 OVC070
     FM241600 11016G26KT 4SM RA SCT015 OVC025
     FM241800 11019G29KT 3SM -RA BKN009 OVC014
     FM242200 12012KT 5SM -RA OVC007 WS020/14045KT
     FM250300 15007KT 4SM BR OVC004=

USA.gov is the U.S. government's official web portal to all federal, state and local government web resources and services.